sensor_id;sensor_type;location;lat;lon;timestamp;pressure;altitude;pressure_sealevel;temperature;humidity
15558;BME280;7880;50.110;9.372;2023-02-02T00:00:12;4.1645390577847134;;;4.375;100.0
15558;BME280;7880;50.110;9.372;2023-02-02T00:05:12;4.11916165422299;;;4.312;100.0
15558;BME280;7880;50.110;9.372;2023-02-02T00:10:25;4.1242035867879165;;;4.312;100.0
15558;BME280;7880;50.110;9.372;2023-02-02T00:15:19;4.1141197219491;;;4.312;100.0
15558;BME280;7880;50.110;9.372;2023-02-02T00:20:23;4.139329386228928;;;4.312;100.0
15558;BME280;7880;50.110;9.372;2023-02-02T00:25:27;4.1242035867879165;;;4.312;100.0
15558;BME280;7880;50.110;9.372;2023-02-02T00:30:32;4.139329386228928;;;4.312;100.0
15558;BME280;7880;50.110;9.372;2023-02-02T00:35:40;4.169580992968986;;;4.375;100.0
15558;BME280;7880;50.110;9.372;2023-02-02T00:40:45;4.169580992968986;;;4.375;100.0
15558;BME280;7880;50.110;9.372;2023-02-02T00:45:49;4.184706800268032;;;4.375;100.0
15558;BME280;7880;50.110;9.372;2023-02-02T00:50:48;4.15949712289148;;;4.375;100.0
15558;BME280;7880;50.110;9.372;2023-02-02T00:55:51;4.184706800268032;;;4.375;100.0
15558;BME280;7880;50.110;9.372;2023-02-02T01:00:55;4.15949712289148;;;4.312;100.0
15558;BME280;7880;50.110;9.372;2023-02-02T01:05:58;4.139329386228928;;;4.312;100.0
15558;BME280;7880;50.110;9.372;2023-02-02T01:11:08;4.134287452790886;;;4.312;100.0
15558;BME280;7880;50.110;9.372;2023-02-02T01:16:10;4.08891006494523;;;4.25;100.0
15558;BME280;7880;50.110;9.372;2023-02-02T01:21:13;4.05865848614485;;;4.25;100.0
15558;BME280;7880;50.110;9.372;2023-02-02T01:26:19;3.993113434687257;;;4.187;100.0
15558;BME280;7880;50.110;9.372;2023-02-02T01:31:22;4.053616557363421;;;4.187;100.0
15558;BME280;7880;50.110;9.372;2023-02-02T01:36:29;3.9981553599762263;;;4.187;100.0
15558;BME280;7880;50.110;9.372;2023-02-02T01:41:33;3.725891810847679;;;3.875;100.0
15558;BME280;7880;50.110;9.372;2023-02-02T01:46:39;3.549425148963928;;;3.625;100.0
15558;BME280;7880;50.110;9.372;2023-02-02T01:51:47;3.5595089486101643;;;3.625;100.0
15558;BME280;7880;50.110;9.372;2023-02-02T02:02:01;3.5443832495773675;;;3.625;100.0
15558;BME280;7880;50.110;9.372;2023-02-02T02:07:06;3.6452212926058563;;;3.75;100.0
15558;BME280;7880;50.110;9.372;2023-02-02T02:12:14;3.6956403577758463;;;3.812;100.0
15558;BME280;7880;50.110;9.372;2023-02-02T02:17:25;3.7158079919929152;;;3.812;100.0
15558;BME280;7880;50.110;9.372;2023-02-02T02:29:30;3.614969867473701;;;3.75;100.0
15558;BME280;7880;50.110;9.372;2023-02-02T02:34:32;3.6452212926058563;;;3.75;100.0
15558;BME280;7880;50.110;9.372;2023-02-02T02:39:26;3.655305103311548;;;3.75;100.0
15558;BME280;7880;50.110;9.372;2023-02-02T02:44:30;3.685556542413542;;;3.812;100.0
15558;BME280;7880;50.110;9.372;2023-02-02T02:49:41;3.816646232927451;;;3.937;100.0
15558;BME280;7880;50.110;9.372;2023-02-02T02:54:46;3.836813895084197;;;4.0;100.0
15558;BME280;7880;50.110;9.372;2023-02-02T02:59:59;3.836813895084197;;;4.0;100.0
15558;BME280;7880;50.110;9.372;2023-02-02T03:04:54;3.836813895084197;;;3.937;100.0
15558;BME280;7880;50.110;9.372;2023-02-02T03:09:53;3.8468977279087992;;;4.0;100.0
15558;BME280;7880;50.110;9.372;2023-02-02T03:14:56;3.912442669644952;;;4.062;100.0
15558;BME280;7880;50.110;9.372;2023-02-02T03:19:58;3.9225265112007035;;;4.062;100.0
15558;BME280;7880;50.110;9.372;2023-02-02T03:24:53;3.9830295849824324;;;4.125;100.0
15558;BME280;7880;50.110;9.372;2023-02-02T03:29:59;3.972945736441761;;;4.125;100.0
15558;BME280;7880;50.110;9.372;2023-02-02T03:34:59;4.003197285556235;;;4.125;100.0
15558;BME280;7880;50.110;9.372;2023-02-02T03:40:03;4.0485746288730295;;;4.187;100.0
15558;BME280;7880;50.110;9.372;2023-02-02T03:45:07;4.063700415217317;;;4.187;100.0
15558;BME280;7880;50.110;9.372;2023-02-02T03:50:11;4.10907778996625;;;4.25;100.0
15558;BME280;7880;50.110;9.372;2023-02-02T03:55:19;4.139329386228928;;;4.312;100.0
15558;BME280;7880;50.110;9.372;2023-02-02T04:00:20;4.184706800268032;;;4.375;100.0
15558;BME280;7880;50.110;9.372;2023-02-02T04:05:25;4.199832610186422;;;4.375;100.0
15558;BME280;7880;50.110;9.372;2023-02-02T04:10:29;4.209916484920541;;;4.375;100.0
15558;BME280;7880;50.110;9.372;2023-02-02T04:15:32;4.1897487366164565;;;4.375;100.0
15558;BME280;7880;50.110;9.372;2023-02-02T04:20:36;4.184706800268032;;;4.312;100.0
15558;BME280;7880;50.110;9.372;2023-02-02T04:25:39;4.15949712289148;;;4.312;100.0
15558;BME280;7880;50.110;9.372;2023-02-02T04:30:43;4.184706800268032;;;4.312;100.0
15558;BME280;7880;50.110;9.372;2023-02-02T04:35:48;4.169580992968986;;;4.312;100.0
15558;BME280;7880;50.110;9.372;2023-02-02T04:40:51;4.1645390577847134;;;4.312;100.0
15558;BME280;7880;50.110;9.372;2023-02-02T04:45:56;4.179664864210645;;;4.312;100.0
15558;BME280;7880;50.110;9.372;2023-02-02T04:50:57;4.204874547407963;;;4.312;100.0
15558;BME280;7880;50.110;9.372;2023-02-02T04:56:05;4.199832610186422;;;4.375;100.0
15558;BME280;7880;50.110;9.372;2023-02-02T05:01:10;4.209916484920541;;;4.375;100.0
15558;BME280;7880;50.110;9.372;2023-02-02T05:06:12;4.225042299204506;;;4.375;100.0
15558;BME280;7880;50.110;9.372;2023-02-02T05:11:15;4.214958422724157;;;4.375;100.0
15558;BME280;7880;50.110;9.372;2023-02-02T05:16:22;4.199832610186422;;;4.375;100.0
15558;BME280;7880;50.110;9.372;2023-02-02T05:21:21;4.1897487366164565;;;4.312;100.0
15558;BME280;7880;50.110;9.372;2023-02-02T05:26:25;4.209916484920541;;;4.375;100.0
15558;BME280;7880;50.110;9.372;2023-02-02T05:31:35;4.199832610186422;;;4.375;100.0
15558;BME280;7880;50.110;9.372;2023-02-02T05:36:43;4.235126176849008;;;4.375;100.0
15558;BME280;7880;50.110;9.372;2023-02-02T05:41:36;4.260335876053432;;;4.375;100.0
15558;BME280;7880;50.110;9.372;2023-02-02T05:46:40;4.255293935630471;;;4.437;100.0
15558;BME280;7880;50.110;9.372;2023-02-02T05:51:47;4.265377816767431;;;4.437;100.0
15558;BME280;7880;50.110;9.372;2023-02-02T05:56:51;4.285545582533814;;;4.437;100.0
15558;BME280;7880;50.110;9.372;2023-02-02T06:01:54;4.290587524703005;;;4.437;100.0
15558;BME280;7880;50.110;9.372;2023-02-02T06:06:58;4.290587524703005;;;4.437;100.0
15558;BME280;7880;50.110;9.372;2023-02-02T06:12:03;4.3057133529568095;;;4.5;100.0
15558;BME280;7880;50.110;9.372;2023-02-02T06:17:09;4.285545582533814;;;4.437;100.0
15558;BME280;7880;50.110;9.372;2023-02-02T06:22:10;4.3057133529568095;;;4.437;100.0
15558;BME280;7880;50.110;9.372;2023-02-02T06:27:13;4.310755296290154;;;4.437;100.0
15558;BME280;7880;50.110;9.372;2023-02-02T06:32:23;4.310755296290154;;;4.437;100.0
15558;BME280;7880;50.110;9.372;2023-02-02T06:37:22;4.330923072533915;;;4.5;100.0
15558;BME280;7880;50.110;9.372;2023-02-02T06:42:26;4.315797239914536;;;4.437;100.0
15558;BME280;7880;50.110;9.372;2023-02-02T06:47:31;4.341006962402025;;;4.5;100.0
15558;BME280;7880;50.110;9.372;2023-02-02T06:52:34;4.330923072533915;;;4.5;100.0
15558;BME280;7880;50.110;9.372;2023-02-02T06:57:38;4.330923072533915;;;4.5;100.0
15558;BME280;7880;50.110;9.372;2023-02-02T07:02:44;4.330923072533915;;;4.5;100.0
15558;BME280;7880;50.110;9.372;2023-02-02T07:07:45;4.330923072533915;;;4.437;100.0
15558;BME280;7880;50.110;9.372;2023-02-02T07:12:49;4.3057133529568095;;;4.437;100.0
15558;BME280;7880;50.110;9.372;2023-02-02T07:18:00;4.330923072533915;;;4.5;100.0
15558;BME280;7880;50.110;9.372;2023-02-02T07:23:14;4.341006962402025;;;4.5;100.0
15558;BME280;7880;50.110;9.372;2023-02-02T07:28:13;4.3561327993869785;;;4.5;100.0
15558;BME280;7880;50.110;9.372;2023-02-02T07:33:05;4.3964683774858715;;;4.562;100.0
15558;BME280;7880;50.110;9.372;2023-02-02T07:38:09;4.386384481214918;;;4.5;100.0
15558;BME280;7880;50.110;9.372;2023-02-02T07:43:12;4.391426429204875;;;4.562;100.0
15558;BME280;7880;50.110;9.372;2023-02-02T07:48:17;4.386384481214918;;;4.5;100.0
15558;BME280;7880;50.110;9.372;2023-02-02T07:53:22;4.421678123256425;;;4.562;100.0
15558;BME280;7880;50.110;9.372;2023-02-02T07:58:26;4.411594224075088;;;4.562;100.0
15558;BME280;7880;50.110;9.372;2023-02-02T08:03:29;4.462013731623301;;;4.625;100.0
15558;BME280;7880;50.110;9.372;2023-02-02T08:08:32;4.431762023601914;;;4.562;100.0
15558;BME280;7880;50.110;9.372;2023-02-02T08:13:36;4.431762023601914;;;4.562;100.0
15558;BME280;7880;50.110;9.372;2023-02-02T08:18:43;4.446887876302935;;;4.562;100.0
15558;BME280;7880;50.110;9.372;2023-02-02T08:23:47;4.436803974211216;;;4.625;100.0
15558;BME280;7880;50.110;9.372;2023-02-02T08:28:54;4.441845925111556;;;4.562;100.0
15558;BME280;7880;50.110;9.372;2023-02-02T08:34:08;4.436803974211216;;;4.625;100.0
15558;BME280;7880;50.110;9.372;2023-02-02T08:39:02;4.456971779558808;;;4.625;100.0
15558;BME280;7880;50.110;9.372;2023-02-02T08:44:05;4.462013731623301;;;4.625;100.0
15558;BME280;7880;50.110;9.372;2023-02-02T08:49:10;4.462013731623301;;;4.625;100.0
15558;BME280;7880;50.110;9.372;2023-02-02T08:54:22;4.451929827785352;;;4.625;100.0
15558;BME280;7880;50.110;9.372;2023-02-02T08:59:23;4.472097636625404;;;4.625;100.0
15558;BME280;7880;50.110;9.372;2023-02-02T09:04:24;4.502349358616629;;;4.625;100.0
15558;BME280;7880;50.110;9.372;2023-02-02T09:09:30;4.522517179098213;;;4.687;100.0
15558;BME280;7880;50.110;9.372;2023-02-02T09:14:33;4.562852834031219;;;4.687;100.0
15558;BME280;7880;50.110;9.372;2023-02-02T09:19:37;4.577978709433228;;;4.75;100.0
15558;BME280;7880;50.110;9.372;2023-02-02T09:24:42;4.557810876145959;;;4.687;100.0
15558;BME280;7880;50.110;9.372;2023-02-02T09:29:53;4.572936750674853;;;4.75;100.0
15558;BME280;7880;50.110;9.372;2023-02-02T09:34:50;4.593104587454581;;;4.75;100.0
15558;BME280;7880;50.110;9.372;2023-02-02T09:40:03;4.6031885075906755;;;4.75;100.0
15558;BME280;7880;50.110;9.372;2023-02-02T09:45:05;4.633440274983878;;;4.812;100.0
15558;BME280;7880;50.110;9.372;2023-02-02T09:50:17;4.633440274983878;;;4.812;100.0
15558;BME280;7880;50.110;9.372;2023-02-02T09:55:13;4.633440274983878;;;4.75;100.0
15558;BME280;7880;50.110;9.372;2023-02-02T10:00:25;4.633440274983878;;;4.812;100.0
15558;BME280;7880;50.110;9.372;2023-02-02T10:05:30;4.653608125733444;;;4.812;100.0
15558;BME280;7880;50.110;9.372;2023-02-02T10:10:33;4.648566162609495;;;4.812;100.0
15558;BME280;7880;50.110;9.372;2023-02-02T10:15:34;4.668734016851522;;;4.812;100.0
15558;BME280;7880;50.110;9.372;2023-02-02T10:20:38;4.688901875750162;;;4.812;100.0
15558;BME280;7880;50.110;9.372;2023-02-02T10:25:36;4.683859910588945;;;4.812;100.0
15558;BME280;7880;50.110;9.372;2023-02-02T10:30:44;4.688901875750162;;;4.812;100.0
15558;BME280;7880;50.110;9.372;2023-02-02T10:35:48;4.7292376075172795;;;4.875;100.0
15558;BME280;7880;50.110;9.372;2023-02-02T10:40:57;4.724195640027756;;;4.875;100.0
15558;BME280;7880;50.110;9.372;2023-02-02T10:45:50;4.71915367282927;;;4.875;100.0
15558;BME280;7880;50.110;9.372;2023-02-02T10:51:00;4.7292376075172795;;;4.875;100.0
15558;BME280;7880;50.110;9.372;2023-02-02T10:55:59;4.739321543369442;;;4.875;100.0
15558;BME280;7880;50.110;9.372;2023-02-02T11:01:08;4.759489418566227;;;4.937;100.0
15558;BME280;7880;50.110;9.372;2023-02-02T11:07:11;4.78469926911057;;;4.937;100.0
15558;BME280;7880;50.110;9.372;2023-02-02T11:11:59;4.789741240092553;;;4.937;100.0
15558;BME280;7880;50.110;9.372;2023-02-02T11:17:00;4.799825182929635;;;4.937;100.0
15558;BME280;7880;50.110;9.372;2023-02-02T11:22:02;4.82503504511551;;;4.937;100.0
15558;BME280;7880;50.110;9.372;2023-02-02T11:27:11;4.875454791315133;;;5.0;100.0
15558;BME280;7880;50.110;9.372;2023-02-02T11:32:18;4.885538744047517;;;5.0;100.0
15558;BME280;7880;50.110;9.372;2023-02-02T11:37:13;4.905706653004745;;;5.062;100.0
15558;BME280;7880;50.110;9.372;2023-02-02T11:42:17;4.930916545749642;;;5.062;100.0
15558;BME280;7880;50.110;9.372;2023-02-02T11:47:25;4.956126445770496;;;5.125;100.0
15558;BME280;7880;50.110;9.372;2023-02-02T11:52:44;4.986378335399786;;;5.125;100.0
15558;BME280;7880;50.110;9.372;2023-02-02T11:57:31;5.0216722198762;;;5.125;100.0
15558;BME280;7880;50.110;9.372;2023-02-02T12:02:33;4.996462300937855;;;5.125;100.0
15558;BME280;7880;50.110;9.372;2023-02-02T12:07:36;5.006546267640078;;;5.125;100.0
15558;BME280;7880;50.110;9.372;2023-02-02T12:12:43;4.986378335399786;;;5.125;100.0
15558;BME280;7880;50.110;9.372;2023-02-02T12:17:45;5.006546267640078;;;5.125;100.0
15558;BME280;7880;50.110;9.372;2023-02-02T12:23:11;4.996462300937855;;;5.125;100.0
15558;BME280;7880;50.110;9.372;2023-02-02T12:28:19;5.0166302355064545;;;5.125;100.0
15558;BME280;7880;50.110;9.372;2023-02-02T12:33:22;5.0166302355064545;;;5.187;100.0
15558;BME280;7880;50.110;9.372;2023-02-02T12:38:30;5.026714204536984;;;5.187;100.0
15558;BME280;7880;50.110;9.372;2023-02-02T12:43:32;5.006546267640078;;;5.187;100.0
15558;BME280;7880;50.110;9.372;2023-02-02T12:48:46;5.026714204536984;;;5.187;100.0
15558;BME280;7880;50.110;9.372;2023-02-02T12:53:39;5.026714204536984;;;5.187;100.0
15558;BME280;7880;50.110;9.372;2023-02-02T12:58:39;5.056966118613491;;;5.187;100.0
15558;BME280;7880;50.110;9.372;2023-02-02T13:03:51;5.067050092300633;;;5.187;100.0
15558;BME280;7880;50.110;9.372;2023-02-02T13:08:50;5.067050092300633;;;5.187;100.0
15558;BME280;7880;50.110;9.372;2023-02-02T13:13:53;5.2888978079485245;;;5.375;100.0
15558;BME280;7880;50.110;9.372;2023-02-02T13:19:01;5.18301587337628;;;5.375;100.0
15558;BME280;7880;50.110;9.372;2023-02-02T13:24:04;5.177973879693309;;;5.312;100.0
15558;BME280;7880;50.110;9.372;2023-02-02T13:28:31;5.193099861615337;;;5.375;100.0
15558;BME280;7880;50.110;9.372;2023-02-02T13:33:22;5.198141856171423;;;5.375;100.0
15558;BME280;7880;50.110;9.372;2023-02-02T13:38:28;5.208225846156711;;;5.375;100.0
15558;BME280;7880;50.110;9.372;2023-02-02T13:43:36;5.2435198202729225;;;5.375;100.0
15558;BME280;7880;50.110;9.372;2023-02-02T13:48:38;5.2687298105156515;;;5.437;100.0
15558;BME280;7880;50.110;9.372;2023-02-02T13:53:52;5.278813808650011;;;5.437;100.0
15558;BME280;7880;50.110;9.372;2023-02-02T13:59:08;5.278813808650011;;;5.437;100.0
15558;BME280;7880;50.110;9.372;2023-02-02T14:03:54;5.263687811885029;;;5.375;100.0
15558;BME280;7880;50.110;9.372;2023-02-02T14:08:59;5.273771809437312;;;5.437;100.0
15558;BME280;7880;50.110;9.372;2023-02-02T14:14:35;5.2888978079485245;;;5.437;100.0
15558;BME280;7880;50.110;9.372;2023-02-02T14:19:57;5.304023809079081;;;5.437;100.0
15558;BME280;7880;50.110;9.372;2023-02-02T14:24:40;5.314107811287977;;;5.5;100.0
15558;BME280;7880;50.110;9.372;2023-02-02T14:30:19;5.324191814661026;;;5.437;100.0
15558;BME280;7880;50.110;9.372;2023-02-02T14:35:59;5.339317821903387;;;5.5;100.0
15558;BME280;7880;50.110;9.372;2023-02-02T14:40:47;5.359485835634405;;;5.5;100.0
15558;BME280;7880;50.110;9.372;2023-02-02T14:45:45;5.389737864962081;;;5.562;100.0
15558;BME280;7880;50.110;9.372;2023-02-02T14:50:50;5.359485835634405;;;5.5;100.0
15558;BME280;7880;50.110;9.372;2023-02-02T14:55:59;5.364527839794755;;;5.5;100.0
15558;BME280;7880;50.110;9.372;2023-02-02T15:01:02;5.384695859346539;;;5.562;100.0
15558;BME280;7880;50.110;9.372;2023-02-02T15:06:04;5.389737864962081;;;5.562;100.0
15558;BME280;7880;50.110;9.372;2023-02-02T15:12:15;5.425031912419945;;;5.562;100.0
15558;BME280;7880;50.110;9.372;2023-02-02T15:16:56;5.3998218770662785;;;5.5;100.0
15558;BME280;7880;50.110;9.372;2023-02-02T15:22:13;5.404863883554936;;;5.562;100.0
15558;BME280;7880;50.110;9.372;2023-02-02T15:27:04;5.3947798708686605;;;5.5;100.0
15558;BME280;7880;50.110;9.372;2023-02-02T15:32:13;5.37461184898857;;;5.5;100.0
15558;BME280;7880;50.110;9.372;2023-02-02T15:37:14;5.404863883554936;;;5.562;100.0
15558;BME280;7880;50.110;9.372;2023-02-02T15:43:21;5.40990589033463;;;5.562;100.0
15558;BME280;7880;50.110;9.372;2023-02-02T15:48:19;5.3998218770662785;;;5.562;100.0
15558;BME280;7880;50.110;9.372;2023-02-02T15:53:17;5.404863883554936;;;5.562;100.0
15558;BME280;7880;50.110;9.372;2023-02-02T15:58:31;5.3998218770662785;;;5.562;100.0
15558;BME280;7880;50.110;9.372;2023-02-02T16:03:25;5.40990589033463;;;5.562;100.0
15558;BME280;7880;50.110;9.372;2023-02-02T16:08:27;5.445199945941567;;;5.625;100.0
15558;BME280;7880;50.110;9.372;2023-02-02T16:13:28;5.440157937124605;;;5.562;100.0
15558;BME280;7880;50.110;9.372;2023-02-02T16:18:34;5.450241955049568;;;5.625;100.0
15558;BME280;7880;50.110;9.372;2023-02-02T16:23:37;5.460325974138686;;;5.625;100.0
15558;BME280;7880;50.110;9.372;2023-02-02T16:28:39;5.490578038390959;;;5.625;100.0
15558;BME280;7880;50.110;9.372;2023-02-02T16:33:48;5.5258721265941855;;;5.687;100.0
15558;BME280;7880;50.110;9.372;2023-02-02T16:38:53;5.556124213547446;;;5.687;100.0
15558;BME280;7880;50.110;9.372;2023-02-02T16:43:54;5.55108219832764;;;5.687;100.0
15558;BME280;7880;50.110;9.372;2023-02-02T16:48:59;5.5309141403588;;;5.687;100.0
15558;BME280;7880;50.110;9.372;2023-02-02T16:54:11;5.5258721265941855;;;5.687;100.0
15558;BME280;7880;50.110;9.372;2023-02-02T16:59:14;5.510746087046573;;;5.687;100.0
15558;BME280;7880;50.110;9.372;2023-02-02T17:04:18;5.5309141403588;;;5.687;100.0
15558;BME280;7880;50.110;9.372;2023-02-02T17:09:23;5.540998168761144;;;5.687;100.0
15558;BME280;7880;50.110;9.372;2023-02-02T17:14:31;5.535956154414452;;;5.687;100.0
15558;BME280;7880;50.110;9.372;2023-02-02T17:19:28;5.546040183398873;;;5.687;100.0
15558;BME280;7880;50.110;9.372;2023-02-02T17:24:29;5.52083011312061;;;5.687;100.0
15558;BME280;7880;50.110;9.372;2023-02-02T17:29:34;5.540998168761144;;;5.687;100.0
15558;BME280;7880;50.110;9.372;2023-02-02T17:34:37;5.55108219832764;;;5.687;100.0
15558;BME280;7880;50.110;9.372;2023-02-02T17:39:42;5.571250260953093;;;5.687;100.0
15558;BME280;7880;50.110;9.372;2023-02-02T17:44:46;5.56116622905829;;;5.687;100.0
15558;BME280;7880;50.110;9.372;2023-02-02T17:49:49;5.540998168761144;;;5.687;100.0
15558;BME280;7880;50.110;9.372;2023-02-02T17:54:56;5.5309141403588;;;5.687;100.0
15558;BME280;7880;50.110;9.372;2023-02-02T17:59:57;5.540998168761144;;;5.687;100.0
15558;BME280;7880;50.110;9.372;2023-02-02T18:05:01;5.535956154414452;;;5.687;100.0
15558;BME280;7880;50.110;9.372;2023-02-02T18:10:08;5.505704074446112;;;5.687;100.0
15558;BME280;7880;50.110;9.372;2023-02-02T18:15:11;5.500662062136689;;;5.625;100.0
15558;BME280;7880;50.110;9.372;2023-02-02T18:20:18;5.445199945941567;;;5.562;100.0
15558;BME280;7880;50.110;9.372;2023-02-02T18:25:25;5.419989904767135;;;5.562;100.0
15558;BME280;7880;50.110;9.372;2023-02-02T18:30:26;5.40990589033463;;;5.5;100.0
15558;BME280;7880;50.110;9.372;2023-02-02T18:34:28;5.384695859346539;;;5.5;100.0
15558;BME280;7880;50.110;9.372;2023-02-02T18:39:30;5.359485835634405;;;5.5;100.0
15558;BME280;7880;50.110;9.372;2023-02-02T18:44:35;5.339317821903387;;;5.437;100.0
15558;BME280;7880;50.110;9.372;2023-02-02T18:49:39;5.334275819198228;;;5.437;100.0
15558;BME280;7880;50.110;9.372;2023-02-02T18:54:42;5.3090658100380095;;;5.437;100.0
15558;BME280;7880;50.110;9.372;2023-02-02T18:59:49;5.2888978079485245;;;5.437;100.0
15558;BME280;7880;50.110;9.372;2023-02-02T19:11:45;5.273771809437312;;;5.375;100.0
15558;BME280;7880;50.110;9.372;2023-02-02T19:16:47;5.293939808034338;;;5.437;100.0
15558;BME280;7880;50.110;9.372;2023-02-02T19:21:54;5.233435826213099;;;5.375;100.0
15558;BME280;7880;50.110;9.372;2023-02-02T19:26:56;5.2233518333174285;;;5.375;100.0
15558;BME280;7880;50.110;9.372;2023-02-02T19:32:08;5.248561817739391;;;5.375;100.0
15558;BME280;7880;50.110;9.372;2023-02-02T19:37:19;5.238477823097492;;;5.375;100.0
15558;BME280;7880;50.110;9.372;2023-02-02T19:42:10;5.2233518333174285;;;5.375;100.0
15558;BME280;7880;50.110;9.372;2023-02-02T19:47:30;5.2435198202729225;;;5.375;100.0
15558;BME280;7880;50.110;9.372;2023-02-02T19:52:28;5.248561817739391;;;5.375;100.0
15558;BME280;7880;50.110;9.372;2023-02-02T19:57:31;5.218309837306151;;;5.375;100.0
15558;BME280;7880;50.110;9.372;2023-02-02T20:02:40;5.238477823097492;;;5.375;100.0
15558;BME280;7880;50.110;9.372;2023-02-02T20:07:33;5.198141856171423;;;5.312;100.0
15558;BME280;7880;50.110;9.372;2023-02-02T20:12:37;5.18805786735029;;;5.312;100.0
15558;BME280;7880;50.110;9.372;2023-02-02T20:17:50;5.18301587337628;;;5.312;100.0
15558;BME280;7880;50.110;9.372;2023-02-02T20:23:05;5.167889893200481;;;5.312;100.0
15558;BME280;7880;50.110;9.372;2023-02-02T20:28:06;5.1527639156440275;;;5.25;100.0
15558;BME280;7880;50.110;9.372;2023-02-02T20:33:18;5.142679932061583;;;5.25;100.0
15558;BME280;7880;50.110;9.372;2023-02-02T20:38:15;5.117469978198642;;;5.25;100.0
15558;BME280;7880;50.110;9.372;2023-02-02T20:43:18;5.0771340671519285;;;5.187;100.0
15558;BME280;7880;50.110;9.372;2023-02-02T20:48:21;5.097302020346978;;;5.25;100.0
15558;BME280;7880;50.110;9.372;2023-02-02T20:53:25;5.041840160265565;;;5.187;100.0
15558;BME280;7880;50.110;9.372;2023-02-02T20:58:32;5.031756189488806;;;5.187;100.0
15558;BME280;7880;50.110;9.372;2023-02-02T21:03:34;5.0166302355064545;;;5.187;100.0
15558;BME280;7880;50.110;9.372;2023-02-02T21:08:39;5.0216722198762;;;5.125;100.0
15558;BME280;7880;50.110;9.372;2023-02-02T21:13:43;4.991420318023302;;;5.125;100.0
15558;BME280;7880;50.110;9.372;2023-02-02T21:18:48;4.996462300937855;;;5.125;100.0
15558;BME280;7880;50.110;9.372;2023-02-02T21:23:51;4.935958525171737;;;5.062;100.0
15558;BME280;7880;50.110;9.372;2023-02-02T21:28:55;4.935958525171737;;;5.062;100.0
15558;BME280;7880;50.110;9.372;2023-02-02T21:34:04;4.941000504884869;;;5.062;100.0
15558;BME280;7880;50.110;9.372;2023-02-02T21:39:14;4.930916545749642;;;5.062;100.0
15558;BME280;7880;50.110;9.372;2023-02-02T21:44:13;4.915790609229589;;;5.0;100.0
15558;BME280;7880;50.110;9.372;2023-02-02T21:49:21;4.8804967675358055;;;5.0;100.0
15558;BME280;7880;50.110;9.372;2023-02-02T21:54:22;4.8804967675358055;;;5.0;100.0
15558;BME280;7880;50.110;9.372;2023-02-02T21:59:28;4.910748630971648;;;5.0;100.0
15558;BME280;7880;50.110;9.372;2023-02-02T22:04:30;4.8804967675358055;;;5.0;100.0
15558;BME280;7880;50.110;9.372;2023-02-02T22:09:39;4.895622697944054;;;5.0;100.0
15558;BME280;7880;50.110;9.372;2023-02-02T22:14:39;4.905706653004745;;;5.0;100.0
15558;BME280;7880;50.110;9.372;2023-02-02T22:19:39;4.865370839746902;;;5.0;100.0
15558;BME280;7880;50.110;9.372;2023-02-02T22:24:49;4.875454791315133;;;5.0;100.0
15558;BME280;7880;50.110;9.372;2023-02-02T22:29:46;4.885538744047517;;;5.0;100.0
15558;BME280;7880;50.110;9.372;2023-02-02T22:34:54;4.840160965919495;;;5.0;100.0
15558;BME280;7880;50.110;9.372;2023-02-02T22:39:55;4.850244914577343;;;4.937;100.0
15558;BME280;7880;50.110;9.372;2023-02-02T22:45:00;4.82503504511551;;;4.937;100.0
15558;BME280;7880;50.110;9.372;2023-02-02T22:50:06;4.840160965919495;;;4.937;100.0
15558;BME280;7880;50.110;9.372;2023-02-02T22:55:09;4.82503504511551;;;4.937;100.0
15558;BME280;7880;50.110;9.372;2023-02-02T23:00:14;4.799825182929635;;;4.937;100.0
15558;BME280;7880;50.110;9.372;2023-02-02T23:05:19;4.799825182929635;;;4.875;100.0
15558;BME280;7880;50.110;9.372;2023-02-02T23:10:23;4.779657298419624;;;4.875;100.0
15558;BME280;7880;50.110;9.372;2023-02-02T23:15:25;4.769573357910849;;;4.875;100.0
15558;BME280;7880;50.110;9.372;2023-02-02T23:20:29;4.759489418566227;;;4.875;100.0
15558;BME280;7880;50.110;9.372;2023-02-02T23:25:33;4.769573357910849;;;4.875;100.0
15558;BME280;7880;50.110;9.372;2023-02-02T23:30:37;4.779657298419624;;;4.875;100.0
15558;BME280;7880;50.110;9.372;2023-02-02T23:35:44;4.779657298419624;;;4.875;100.0
15558;BME280;7880;50.110;9.372;2023-02-02T23:40:35;4.8300770184258;;;4.937;100.0
15558;BME280;7880;50.110;9.372;2023-02-02T23:45:39;4.814951099368045;;;4.937;100.0
15558;BME280;7880;50.110;9.372;2023-02-02T23:50:44;4.814951099368045;;;4.937;100.0
15558;BME280;7880;50.110;9.372;2023-02-02T23:55:53;4.8099091269308705;;;4.937;100.0
